sensor_id;sensor_type;location;lat;lon;timestamp;pressure;altitude;pressure_sealevel;temperature;humidity
73151;BME280;61354;50.758;6.106;2023-04-27T00:01:10;99527.16;;;5.68;76.68
73151;BME280;61354;50.758;6.106;2023-04-27T00:03:36;99530.16;;;5.58;77.20
73151;BME280;61354;50.758;6.106;2023-04-27T00:06:02;99532.59;;;5.91;77.31
73151;BME280;61354;50.758;6.106;2023-04-27T00:08:28;99527.72;;;5.88;76.42
73151;BME280;61354;50.758;6.106;2023-04-27T00:10:53;99530.75;;;5.78;76.88
73151;BME280;61354;50.758;6.106;2023-04-27T00:13:19;99530.38;;;5.70;77.47
73151;BME280;61354;50.758;6.106;2023-04-27T00:15:44;99525.69;;;5.93;77.16
73151;BME280;61354;50.758;6.106;2023-04-27T00:18:10;99517.63;;;6.06;76.16
73151;BME280;61354;50.758;6.106;2023-04-27T00:20:35;99526.50;;;5.94;76.93
73151;BME280;61354;50.758;6.106;2023-04-27T00:23:01;99528.84;;;5.87;77.53
73151;BME280;61354;50.758;6.106;2023-04-27T00:25:26;99532.84;;;6.03;77.10
73151;BME280;61354;50.758;6.106;2023-04-27T00:27:52;99519.41;;;6.10;77.49
73151;BME280;61354;50.758;6.106;2023-04-27T00:30:18;99516.94;;;6.00;77.88
73151;BME280;61354;50.758;6.106;2023-04-27T00:32:44;99529.09;;;5.99;77.50
73151;BME280;61354;50.758;6.106;2023-04-27T00:35:10;99526.22;;;6.13;76.55
73151;BME280;61354;50.758;6.106;2023-04-27T00:37:36;99534.00;;;5.80;76.88
73151;BME280;61354;50.758;6.106;2023-04-27T00:40:03;99529.13;;;5.77;78.45
73151;BME280;61354;50.758;6.106;2023-04-27T00:42:31;99529.53;;;5.92;78.07
73151;BME280;61354;50.758;6.106;2023-04-27T00:44:57;99529.44;;;5.75;79.45
73151;BME280;61354;50.758;6.106;2023-04-27T00:47:23;99528.09;;;5.95;79.09
73151;BME280;61354;50.758;6.106;2023-04-27T00:49:49;99528.94;;;6.04;78.73
73151;BME280;61354;50.758;6.106;2023-04-27T00:52:16;99530.53;;;5.96;78.50
73151;BME280;61354;50.758;6.106;2023-04-27T00:54:41;99532.22;;;5.84;78.64
73151;BME280;61354;50.758;6.106;2023-04-27T00:57:07;99533.50;;;5.78;79.63
73151;BME280;61354;50.758;6.106;2023-04-27T00:59:33;99518.59;;;5.79;80.28
73151;BME280;61354;50.758;6.106;2023-04-27T01:01:59;99527.03;;;5.82;79.70
73151;BME280;61354;50.758;6.106;2023-04-27T01:04:26;99522.97;;;5.80;79.95
73151;BME280;61354;50.758;6.106;2023-04-27T01:06:53;99523.47;;;5.82;80.77
73151;BME280;61354;50.758;6.106;2023-04-27T01:09:19;99527.31;;;5.72;81.10
73151;BME280;61354;50.758;6.106;2023-04-27T01:11:47;99525.78;;;5.57;81.70
73151;BME280;61354;50.758;6.106;2023-04-27T01:14:13;99523.56;;;5.68;81.24
73151;BME280;61354;50.758;6.106;2023-04-27T01:16:38;99523.16;;;5.52;81.53
73151;BME280;61354;50.758;6.106;2023-04-27T01:19:06;99522.28;;;5.43;81.44
73151;BME280;61354;50.758;6.106;2023-04-27T01:21:32;99518.13;;;5.54;80.36
73151;BME280;61354;50.758;6.106;2023-04-27T01:23:58;99525.53;;;5.45;80.75
73151;BME280;61354;50.758;6.106;2023-04-27T01:26:23;99523.47;;;5.51;80.16
73151;BME280;61354;50.758;6.106;2023-04-27T01:28:49;99528.91;;;5.42;79.32
73151;BME280;61354;50.758;6.106;2023-04-27T01:31:14;99525.56;;;5.22;80.21
73151;BME280;61354;50.758;6.106;2023-04-27T01:33:41;99530.94;;;5.28;81.51
73151;BME280;61354;50.758;6.106;2023-04-27T01:36:07;99532.81;;;5.41;80.47
73151;BME280;61354;50.758;6.106;2023-04-27T01:38:34;99524.72;;;5.22;81.05
73151;BME280;61354;50.758;6.106;2023-04-27T01:41:00;99527.31;;;5.18;80.34
73151;BME280;61354;50.758;6.106;2023-04-27T01:43:29;99523.44;;;5.19;80.89
73151;BME280;61354;50.758;6.106;2023-04-27T01:45:56;99519.81;;;5.10;80.75
73151;BME280;61354;50.758;6.106;2023-04-27T01:48:21;99517.47;;;5.04;81.20
73151;BME280;61354;50.758;6.106;2023-04-27T01:50:47;99520.28;;;5.12;81.69
73151;BME280;61354;50.758;6.106;2023-04-27T01:53:12;99519.72;;;5.02;81.32
73151;BME280;61354;50.758;6.106;2023-04-27T01:55:38;99511.97;;;5.04;81.20
73151;BME280;61354;50.758;6.106;2023-04-27T01:58:04;99508.16;;;4.91;80.57
73151;BME280;61354;50.758;6.106;2023-04-27T02:00:29;99511.13;;;4.81;80.47
73151;BME280;61354;50.758;6.106;2023-04-27T02:02:55;99505.25;;;4.73;81.92
73151;BME280;61354;50.758;6.106;2023-04-27T02:05:22;99519.41;;;4.67;82.15
73151;BME280;61354;50.758;6.106;2023-04-27T02:07:49;99524.22;;;4.61;82.81
73151;BME280;61354;50.758;6.106;2023-04-27T02:10:15;99517.34;;;4.36;83.55
73151;BME280;61354;50.758;6.106;2023-04-27T02:12:40;99521.41;;;4.39;83.64
73151;BME280;61354;50.758;6.106;2023-04-27T02:15:06;99525.97;;;4.57;82.70
73151;BME280;61354;50.758;6.106;2023-04-27T02:17:33;99527.09;;;4.56;82.64
73151;BME280;61354;50.758;6.106;2023-04-27T02:19:59;99521.97;;;4.63;82.39
73151;BME280;61354;50.758;6.106;2023-04-27T02:22:24;99517.19;;;4.55;83.39
73151;BME280;61354;50.758;6.106;2023-04-27T02:24:50;99514.88;;;4.48;83.10
73151;BME280;61354;50.758;6.106;2023-04-27T03:25:34;99522.81;;;3.81;84.16
73151;BME280;61354;50.758;6.106;2023-04-27T03:28:25;99520.50;;;3.88;84.17
73151;BME280;61354;50.758;6.106;2023-04-27T03:31:07;99526.28;;;3.73;84.07
73151;BME280;61354;50.758;6.106;2023-04-27T03:33:40;99521.78;;;3.63;84.81
73151;BME280;61354;50.758;6.106;2023-04-27T03:36:29;99518.94;;;3.68;84.01
73151;BME280;61354;50.758;6.106;2023-04-27T03:39:14;99520.78;;;3.59;84.08
73151;BME280;61354;50.758;6.106;2023-04-27T03:41:52;99521.69;;;3.22;85.09
73151;BME280;61354;50.758;6.106;2023-04-27T03:44:35;99521.06;;;3.11;86.09
73151;BME280;61354;50.758;6.106;2023-04-27T03:47:13;99518.56;;;3.29;86.32
73151;BME280;61354;50.758;6.106;2023-04-27T03:52:52;99523.78;;;3.44;85.58
73151;BME280;61354;50.758;6.106;2023-04-27T03:55:24;99522.47;;;3.41;85.61
73151;BME280;61354;50.758;6.106;2023-04-27T03:57:56;99529.97;;;3.36;86.14
73151;BME280;61354;50.758;6.106;2023-04-27T04:00:21;99531.72;;;3.45;85.46
73151;BME280;61354;50.758;6.106;2023-04-27T04:03:05;99538.19;;;3.36;85.71
73151;BME280;61354;50.758;6.106;2023-04-27T04:05:42;99540.78;;;3.46;85.83
73151;BME280;61354;50.758;6.106;2023-04-27T04:08:23;99550.38;;;3.30;86.38
73151;BME280;61354;50.758;6.106;2023-04-27T04:11:13;99548.75;;;3.29;86.26
73151;BME280;61354;50.758;6.106;2023-04-27T04:14:04;99551.41;;;3.34;86.70
73151;BME280;61354;50.758;6.106;2023-04-27T04:16:29;99548.13;;;3.32;86.81
73151;BME280;61354;50.758;6.106;2023-04-27T04:19:07;99549.00;;;3.46;86.48
73151;BME280;61354;50.758;6.106;2023-04-27T04:21:44;99546.09;;;3.23;86.76
73151;BME280;61354;50.758;6.106;2023-04-27T04:27:43;99552.34;;;3.43;86.67
73151;BME280;61354;50.758;6.106;2023-04-27T04:30:14;99551.66;;;3.51;85.49
73151;BME280;61354;50.758;6.106;2023-04-27T04:32:59;99554.81;;;3.44;86.48
73151;BME280;61354;50.758;6.106;2023-04-27T04:35:37;99554.06;;;3.39;86.30
73151;BME280;61354;50.758;6.106;2023-04-27T04:38:15;99552.88;;;3.45;86.15
73151;BME280;61354;50.758;6.106;2023-04-27T04:44:07;99564.47;;;3.56;86.40
73151;BME280;61354;50.758;6.106;2023-04-27T04:49:42;99562.56;;;3.05;87.58
73151;BME280;61354;50.758;6.106;2023-04-27T04:52:19;99557.75;;;3.15;88.35
73151;BME280;61354;50.758;6.106;2023-04-27T04:55:22;99560.44;;;2.83;90.14
73151;BME280;61354;50.758;6.106;2023-04-27T04:58:14;99556.94;;;2.96;90.06
73151;BME280;61354;50.758;6.106;2023-04-27T05:00:45;99563.75;;;3.17;89.05
73151;BME280;61354;50.758;6.106;2023-04-27T05:03:42;99560.59;;;3.43;87.88
73151;BME280;61354;50.758;6.106;2023-04-27T05:06:26;99566.59;;;3.45;88.06
73151;BME280;61354;50.758;6.106;2023-04-27T05:08:57;99571.66;;;3.38;88.34
73151;BME280;61354;50.758;6.106;2023-04-27T05:11:28;99569.69;;;3.57;87.78
73151;BME280;61354;50.758;6.106;2023-04-27T05:14:12;99575.38;;;3.61;88.49
73151;BME280;61354;50.758;6.106;2023-04-27T05:16:56;99571.06;;;3.73;87.63
73151;BME280;61354;50.758;6.106;2023-04-27T05:19:39;99572.81;;;3.83;87.36
73151;BME280;61354;50.758;6.106;2023-04-27T05:22:29;99581.75;;;3.89;86.98
73151;BME280;61354;50.758;6.106;2023-04-27T05:25:07;99582.50;;;3.94;86.44
73151;BME280;61354;50.758;6.106;2023-04-27T05:27:51;99578.19;;;4.02;86.18
73151;BME280;61354;50.758;6.106;2023-04-27T05:30:40;99581.06;;;3.97;87.85
73151;BME280;61354;50.758;6.106;2023-04-27T05:33:24;99587.06;;;3.99;87.69
73151;BME280;61354;50.758;6.106;2023-04-27T05:39:10;99592.03;;;3.97;88.21
73151;BME280;61354;50.758;6.106;2023-04-27T05:44:44;99590.84;;;4.31;86.33
73151;BME280;61354;50.758;6.106;2023-04-27T05:47:34;99595.03;;;4.42;85.83
73151;BME280;61354;50.758;6.106;2023-04-27T05:49:59;99577.22;;;4.53;85.11
73151;BME280;61354;50.758;6.106;2023-04-27T05:52:25;99587.41;;;4.53;85.29
73151;BME280;61354;50.758;6.106;2023-04-27T05:54:55;99583.91;;;4.47;85.68
73151;BME280;61354;50.758;6.106;2023-04-27T05:57:46;99596.06;;;4.46;85.32
73151;BME280;61354;50.758;6.106;2023-04-27T06:00:43;99591.25;;;4.38;86.74
73151;BME280;61354;50.758;6.106;2023-04-27T06:03:33;99586.97;;;4.59;85.96
73151;BME280;61354;50.758;6.106;2023-04-27T06:06:00;99587.97;;;4.63;86.42
73151;BME280;61354;50.758;6.106;2023-04-27T06:08:50;99587.25;;;4.71;86.27
73151;BME280;61354;50.758;6.106;2023-04-27T06:11:34;99595.09;;;4.78;85.68
73151;BME280;61354;50.758;6.106;2023-04-27T06:14:05;99588.56;;;4.88;85.84
73151;BME280;61354;50.758;6.106;2023-04-27T06:20:10;99585.41;;;5.17;83.93
73151;BME280;61354;50.758;6.106;2023-04-27T06:22:36;99576.75;;;5.10;82.55
73151;BME280;61354;50.758;6.106;2023-04-27T06:25:39;99577.03;;;5.22;83.13
73151;BME280;61354;50.758;6.106;2023-04-27T06:31:01;99584.19;;;5.45;80.29
73151;BME280;61354;50.758;6.106;2023-04-27T06:33:51;99589.22;;;5.43;82.51
73151;BME280;61354;50.758;6.106;2023-04-27T06:39:07;99599.47;;;5.52;79.75
73151;BME280;61354;50.758;6.106;2023-04-27T06:41:50;99591.28;;;5.60;78.99
73151;BME280;61354;50.758;6.106;2023-04-27T06:47:31;99593.66;;;5.84;78.68
73151;BME280;61354;50.758;6.106;2023-04-27T06:50:15;99589.47;;;5.87;78.74
73151;BME280;61354;50.758;6.106;2023-04-27T06:52:59;99581.41;;;5.90;78.66
73151;BME280;61354;50.758;6.106;2023-04-27T06:56:01;99582.78;;;6.02;76.89
73151;BME280;61354;50.758;6.106;2023-04-27T06:58:40;99584.59;;;6.06;77.10
73151;BME280;61354;50.758;6.106;2023-04-27T07:01:05;99579.81;;;6.29;77.20
73151;BME280;61354;50.758;6.106;2023-04-27T07:03:36;99578.22;;;6.37;76.26
73151;BME280;61354;50.758;6.106;2023-04-27T07:06:08;99584.91;;;6.44;75.69
73151;BME280;61354;50.758;6.106;2023-04-27T07:08:34;99590.81;;;6.60;75.64
73151;BME280;61354;50.758;6.106;2023-04-27T07:11:24;99578.97;;;6.68;77.28
73151;BME280;61354;50.758;6.106;2023-04-27T07:17:36;99582.09;;;6.84;73.66
73151;BME280;61354;50.758;6.106;2023-04-27T07:20:07;99585.50;;;6.90;71.95
73151;BME280;61354;50.758;6.106;2023-04-27T07:22:51;99583.91;;;7.06;72.72
73151;BME280;61354;50.758;6.106;2023-04-27T07:25:47;99577.41;;;7.19;72.28
73151;BME280;61354;50.758;6.106;2023-04-27T07:28:13;99584.38;;;7.26;70.68
73151;BME280;61354;50.758;6.106;2023-04-27T07:30:58;99585.53;;;7.25;68.07
73151;BME280;61354;50.758;6.106;2023-04-27T07:33:59;99577.91;;;7.39;69.85
73151;BME280;61354;50.758;6.106;2023-04-27T07:36:37;99580.47;;;7.53;70.24
73151;BME280;61354;50.758;6.106;2023-04-27T07:39:21;99578.34;;;7.58;67.70
73151;BME280;61354;50.758;6.106;2023-04-27T07:41:53;99576.53;;;7.71;67.97
73151;BME280;61354;50.758;6.106;2023-04-27T07:44:25;99577.66;;;7.87;67.78
73151;BME280;61354;50.758;6.106;2023-04-27T07:46:56;99572.94;;;7.88;65.47
73151;BME280;61354;50.758;6.106;2023-04-27T07:49:41;99575.88;;;7.83;65.92
73151;BME280;61354;50.758;6.106;2023-04-27T07:52:27;99568.41;;;7.75;64.89
73151;BME280;61354;50.758;6.106;2023-04-27T07:54:53;99570.16;;;7.88;64.65
73151;BME280;61354;50.758;6.106;2023-04-27T07:57:31;99563.16;;;7.99;65.62
73151;BME280;61354;50.758;6.106;2023-04-27T08:00:15;99567.19;;;8.10;65.67
73151;BME280;61354;50.758;6.106;2023-04-27T08:05:48;99566.22;;;8.06;63.91
73151;BME280;61354;50.758;6.106;2023-04-27T08:08:27;99566.53;;;8.13;63.17
73151;BME280;61354;50.758;6.106;2023-04-27T08:10:59;99568.66;;;8.08;64.85
73151;BME280;61354;50.758;6.106;2023-04-27T08:13:43;99565.72;;;8.04;63.31
73151;BME280;61354;50.758;6.106;2023-04-27T08:16:27;99557.44;;;8.04;62.02
73151;BME280;61354;50.758;6.106;2023-04-27T08:19:12;99558.34;;;8.26;60.51
73151;BME280;61354;50.758;6.106;2023-04-27T08:22:20;99560.88;;;8.48;61.02
73151;BME280;61354;50.758;6.106;2023-04-27T08:24:46;99554.97;;;8.50;60.55
73151;BME280;61354;50.758;6.106;2023-04-27T08:27:17;99550.94;;;8.47;61.04
73151;BME280;61354;50.758;6.106;2023-04-27T08:30:07;99552.03;;;8.55;59.01
73151;BME280;61354;50.758;6.106;2023-04-27T08:33:03;99552.31;;;8.62;60.64
73151;BME280;61354;50.758;6.106;2023-04-27T08:35:40;99540.13;;;8.63;58.70
73151;BME280;61354;50.758;6.106;2023-04-27T08:38:24;99543.78;;;8.76;60.69
73151;BME280;61354;50.758;6.106;2023-04-27T08:43:58;99548.91;;;8.86;58.75
73151;BME280;61354;50.758;6.106;2023-04-27T08:46:55;99542.34;;;8.69;57.10
73151;BME280;61354;50.758;6.106;2023-04-27T08:49:39;99535.72;;;8.83;57.08
73151;BME280;61354;50.758;6.106;2023-04-27T08:52:22;99534.47;;;8.80;56.47
73151;BME280;61354;50.758;6.106;2023-04-27T08:55:07;99532.28;;;8.86;56.96
73151;BME280;61354;50.758;6.106;2023-04-27T08:57:54;99533.66;;;9.01;58.75
73151;BME280;61354;50.758;6.106;2023-04-27T09:00:51;99532.44;;;9.10;56.04
73151;BME280;61354;50.758;6.106;2023-04-27T09:03:28;99533.50;;;9.18;56.78
73151;BME280;61354;50.758;6.106;2023-04-27T09:05:54;99536.34;;;9.30;60.17
73151;BME280;61354;50.758;6.106;2023-04-27T09:08:20;99532.72;;;9.17;58.65
73151;BME280;61354;50.758;6.106;2023-04-27T09:11:34;99533.13;;;9.40;58.32
73151;BME280;61354;50.758;6.106;2023-04-27T09:14:21;99530.44;;;9.32;55.87
73151;BME280;61354;50.758;6.106;2023-04-27T09:17:15;99531.91;;;9.50;55.97
73151;BME280;61354;50.758;6.106;2023-04-27T09:20:06;99523.03;;;9.57;56.81
73151;BME280;61354;50.758;6.106;2023-04-27T09:25:36;99522.00;;;9.61;55.94
73151;BME280;61354;50.758;6.106;2023-04-27T09:28:14;99532.19;;;9.69;57.19
73151;BME280;61354;50.758;6.106;2023-04-27T09:30:52;99528.09;;;9.88;56.10
73151;BME280;61354;50.758;6.106;2023-04-27T09:33:37;99526.28;;;10.04;56.75
73151;BME280;61354;50.758;6.106;2023-04-27T09:36:20;99534.38;;;10.09;55.67
73151;BME280;61354;50.758;6.106;2023-04-27T09:39:23;99529.28;;;10.11;54.52
73151;BME280;61354;50.758;6.106;2023-04-27T09:42:01;99530.00;;;10.20;54.97
73151;BME280;61354;50.758;6.106;2023-04-27T09:44:34;99524.66;;;10.15;55.82
73151;BME280;61354;50.758;6.106;2023-04-27T09:47:24;99527.72;;;10.47;56.37
73151;BME280;61354;50.758;6.106;2023-04-27T09:50:15;99527.22;;;10.57;55.91
73151;BME280;61354;50.758;6.106;2023-04-27T09:52:59;99526.09;;;10.46;54.71
73151;BME280;61354;50.758;6.106;2023-04-27T09:58:57;99514.50;;;10.44;54.08
73151;BME280;61354;50.758;6.106;2023-04-27T10:02:16;99511.72;;;10.56;54.77
73151;BME280;61354;50.758;6.106;2023-04-27T10:08:14;99500.16;;;10.66;54.61
73151;BME280;61354;50.758;6.106;2023-04-27T10:11:14;99497.81;;;10.68;54.64
73151;BME280;61354;50.758;6.106;2023-04-27T10:14:15;99491.09;;;10.69;52.75
73151;BME280;61354;50.758;6.106;2023-04-27T10:16:57;99488.41;;;10.85;54.74
73151;BME280;61354;50.758;6.106;2023-04-27T10:19:51;99502.44;;;10.77;53.22
73151;BME280;61354;50.758;6.106;2023-04-27T10:22:23;99489.03;;;10.79;53.18
73151;BME280;61354;50.758;6.106;2023-04-27T10:24:50;99485.31;;;10.87;53.38
73151;BME280;61354;50.758;6.106;2023-04-27T10:27:38;99480.16;;;11.01;54.01
73151;BME280;61354;50.758;6.106;2023-04-27T10:33:06;99493.31;;;11.16;53.17
73151;BME280;61354;50.758;6.106;2023-04-27T10:35:55;99493.53;;;11.39;56.50
73151;BME280;61354;50.758;6.106;2023-04-27T10:38:32;99492.31;;;11.37;54.09
73151;BME280;61354;50.758;6.106;2023-04-27T10:41:32;99482.91;;;11.41;53.25
73151;BME280;61354;50.758;6.106;2023-04-27T10:44:23;99488.13;;;11.59;54.56
73151;BME280;61354;50.758;6.106;2023-04-27T10:47:15;99488.72;;;11.52;52.99
73151;BME280;61354;50.758;6.106;2023-04-27T10:49:47;99482.03;;;11.25;52.18
73151;BME280;61354;50.758;6.106;2023-04-27T10:55:30;99481.06;;;11.61;53.16
73151;BME280;61354;50.758;6.106;2023-04-27T10:58:26;99473.78;;;11.73;55.24
73151;BME280;61354;50.758;6.106;2023-04-27T11:03:56;99470.34;;;11.91;52.50
73151;BME280;61354;50.758;6.106;2023-04-27T11:06:59;99454.72;;;12.03;53.27
73151;BME280;61354;50.758;6.106;2023-04-27T11:09:55;99438.25;;;12.29;53.09
73151;BME280;61354;50.758;6.106;2023-04-27T11:12:44;99448.50;;;12.09;51.47
73151;BME280;61354;50.758;6.106;2023-04-27T11:15:11;99445.31;;;12.42;54.63
73151;BME280;61354;50.758;6.106;2023-04-27T11:17:44;99436.88;;;12.39;51.11
73151;BME280;61354;50.758;6.106;2023-04-27T11:20:37;99420.91;;;12.36;52.53
73151;BME280;61354;50.758;6.106;2023-04-27T11:26:31;99422.47;;;12.53;52.49
73151;BME280;61354;50.758;6.106;2023-04-27T11:29:05;99416.94;;;12.37;51.87
73151;BME280;61354;50.758;6.106;2023-04-27T11:32:01;99423.22;;;12.34;50.21
73151;BME280;61354;50.758;6.106;2023-04-27T11:34:49;99424.03;;;12.34;49.90
73151;BME280;61354;50.758;6.106;2023-04-27T11:40:42;99416.06;;;12.33;50.81
73151;BME280;61354;50.758;6.106;2023-04-27T11:43:19;99416.81;;;12.49;49.33
73151;BME280;61354;50.758;6.106;2023-04-27T11:46:19;99411.50;;;12.25;51.09
73151;BME280;61354;50.758;6.106;2023-04-27T11:49:02;99409.44;;;12.06;48.72
73151;BME280;61354;50.758;6.106;2023-04-27T11:51:46;99408.78;;;12.28;49.32
73151;BME280;61354;50.758;6.106;2023-04-27T11:54:13;99399.63;;;12.28;49.54
73151;BME280;61354;50.758;6.106;2023-04-27T11:56:45;99413.16;;;12.45;50.32
73151;BME280;61354;50.758;6.106;2023-04-27T12:02:43;99401.50;;;12.59;50.40
73151;BME280;61354;50.758;6.106;2023-04-27T12:05:33;99404.47;;;12.66;52.12
73151;BME280;61354;50.758;6.106;2023-04-27T12:08:05;99406.94;;;12.71;51.98
73151;BME280;61354;50.758;6.106;2023-04-27T12:10:55;99401.16;;;12.80;50.96
73151;BME280;61354;50.758;6.106;2023-04-27T12:13:39;99402.34;;;12.79;51.15
73151;BME280;61354;50.758;6.106;2023-04-27T12:16:17;99402.13;;;12.87;49.80
73151;BME280;61354;50.758;6.106;2023-04-27T12:18:42;99403.34;;;12.71;50.52
73151;BME280;61354;50.758;6.106;2023-04-27T12:21:32;99399.38;;;12.72;49.32
73151;BME280;61354;50.758;6.106;2023-04-27T12:23:58;99392.78;;;12.60;49.66
73151;BME280;61354;50.758;6.106;2023-04-27T12:26:36;99389.56;;;12.97;51.24
73151;BME280;61354;50.758;6.106;2023-04-27T12:29:07;99393.66;;;12.64;48.25
73151;BME280;61354;50.758;6.106;2023-04-27T12:32:15;99392.06;;;13.02;52.03
73151;BME280;61354;50.758;6.106;2023-04-27T12:34:59;99396.47;;;13.03;50.69
73151;BME280;61354;50.758;6.106;2023-04-27T12:37:37;99392.34;;;13.16;51.28
73151;BME280;61354;50.758;6.106;2023-04-27T12:40:08;99388.59;;;12.89;49.41
73151;BME280;61354;50.758;6.106;2023-04-27T12:42:58;99393.59;;;12.80;49.47
73151;BME280;61354;50.758;6.106;2023-04-27T12:46:01;99396.63;;;12.91;50.36
73151;BME280;61354;50.758;6.106;2023-04-27T12:48:50;99396.09;;;13.05;50.06
73151;BME280;61354;50.758;6.106;2023-04-27T12:51:16;99398.22;;;12.92;48.29
73151;BME280;61354;50.758;6.106;2023-04-27T12:53:47;99397.19;;;12.81;48.74
73151;BME280;61354;50.758;6.106;2023-04-27T12:56:43;99393.53;;;13.15;51.32
73151;BME280;61354;50.758;6.106;2023-04-27T12:59:22;99386.63;;;13.09;51.33
73151;BME280;61354;50.758;6.106;2023-04-27T13:02:12;99383.41;;;13.07;49.49
73151;BME280;61354;50.758;6.106;2023-04-27T13:04:43;99386.94;;;13.24;50.17
73151;BME280;61354;50.758;6.106;2023-04-27T13:07:28;99387.03;;;13.31;49.54
73151;BME280;61354;50.758;6.106;2023-04-27T13:09:54;99382.34;;;13.35;50.76
73151;BME280;61354;50.758;6.106;2023-04-27T13:12:50;99379.13;;;13.33;47.88
73151;BME280;61354;50.758;6.106;2023-04-27T13:15:33;99372.59;;;13.25;48.68
73151;BME280;61354;50.758;6.106;2023-04-27T13:18:05;99373.44;;;13.06;48.96
73151;BME280;61354;50.758;6.106;2023-04-27T13:21:07;99377.59;;;13.58;49.85
73151;BME280;61354;50.758;6.106;2023-04-27T13:24:22;99374.53;;;13.90;50.29
73151;BME280;61354;50.758;6.106;2023-04-27T13:26:54;99370.50;;;13.87;50.06
73151;BME280;61354;50.758;6.106;2023-04-27T13:29:20;99366.81;;;14.06;50.71
73151;BME280;61354;50.758;6.106;2023-04-27T13:31:54;99374.00;;;14.07;52.30
73151;BME280;61354;50.758;6.106;2023-04-27T13:34:20;99358.03;;;14.08;47.88
73151;BME280;61354;50.758;6.106;2023-04-27T13:40:06;99362.50;;;14.12;49.02
73151;BME280;61354;50.758;6.106;2023-04-27T13:42:56;99357.88;;;13.97;47.00
73151;BME280;61354;50.758;6.106;2023-04-27T13:45:27;99353.72;;;14.40;50.34
73151;BME280;61354;50.758;6.106;2023-04-27T13:47:59;99350.81;;;14.03;48.19
73151;BME280;61354;50.758;6.106;2023-04-27T13:56:48;99347.47;;;13.94;47.04
73151;BME280;61354;50.758;6.106;2023-04-27T13:59:33;99338.81;;;14.56;48.31
73151;BME280;61354;50.758;6.106;2023-04-27T14:02:11;99326.94;;;14.36;47.83
73151;BME280;61354;50.758;6.106;2023-04-27T14:04:48;99325.22;;;14.28;48.79
73151;BME280;61354;50.758;6.106;2023-04-27T14:10:12;99328.94;;;14.65;48.50
73151;BME280;61354;50.758;6.106;2023-04-27T14:12:39;99322.50;;;14.61;46.41
73151;BME280;61354;50.758;6.106;2023-04-27T14:15:16;99317.44;;;14.74;47.42
73151;BME280;61354;50.758;6.106;2023-04-27T14:18:00;99321.84;;;14.45;46.03
73151;BME280;61354;50.758;6.106;2023-04-27T14:20:26;99308.88;;;14.94;48.01
73151;BME280;61354;50.758;6.106;2023-04-27T14:22:53;99314.00;;;14.54;46.98
73151;BME280;61354;50.758;6.106;2023-04-27T14:25:26;99305.38;;;14.06;47.20
73151;BME280;61354;50.758;6.106;2023-04-27T14:27:53;99297.34;;;14.61;48.37
73151;BME280;61354;50.758;6.106;2023-04-27T14:30:50;99292.41;;;14.51;46.50
73151;BME280;61354;50.758;6.106;2023-04-27T14:33:34;99286.03;;;14.51;48.27
73151;BME280;61354;50.758;6.106;2023-04-27T14:36:24;99291.25;;;14.52;48.32
73151;BME280;61354;50.758;6.106;2023-04-27T14:39:08;99282.75;;;14.45;48.60
73151;BME280;61354;50.758;6.106;2023-04-27T14:42:10;99286.13;;;14.28;47.37
73151;BME280;61354;50.758;6.106;2023-04-27T14:44:36;99269.19;;;14.47;47.17
73151;BME280;61354;50.758;6.106;2023-04-27T14:47:19;99276.03;;;14.20;47.43
73151;BME280;61354;50.758;6.106;2023-04-27T14:50:04;99258.63;;;14.63;48.74
73151;BME280;61354;50.758;6.106;2023-04-27T14:52:53;99261.31;;;14.53;47.49
73151;BME280;61354;50.758;6.106;2023-04-27T14:55:25;99258.31;;;14.69;47.73
73151;BME280;61354;50.758;6.106;2023-04-27T14:57:51;99268.25;;;14.66;47.68
73151;BME280;61354;50.758;6.106;2023-04-27T15:00:42;99260.84;;;14.84;47.22
73151;BME280;61354;50.758;6.106;2023-04-27T15:03:32;99274.44;;;14.86;47.47
73151;BME280;61354;50.758;6.106;2023-04-27T15:06:16;99273.97;;;14.77;47.85
73151;BME280;61354;50.758;6.106;2023-04-27T15:09:06;99277.06;;;15.09;46.64
73151;BME280;61354;50.758;6.106;2023-04-27T15:14:52;99268.91;;;14.89;47.67
73151;BME280;61354;50.758;6.106;2023-04-27T15:17:37;99264.75;;;15.17;48.14
73151;BME280;61354;50.758;6.106;2023-04-27T15:20:08;99263.09;;;14.72;46.64
73151;BME280;61354;50.758;6.106;2023-04-27T15:26:26;99265.56;;;14.77;47.33
73151;BME280;61354;50.758;6.106;2023-04-27T15:28:53;99255.91;;;14.71;46.67
73151;BME280;61354;50.758;6.106;2023-04-27T15:31:37;99256.53;;;15.38;47.23
73151;BME280;61354;50.758;6.106;2023-04-27T15:34:08;99251.56;;;15.17;46.82
73151;BME280;61354;50.758;6.106;2023-04-27T15:36:34;99254.63;;;15.50;46.38
73151;BME280;61354;50.758;6.106;2023-04-27T15:38:59;99263.13;;;15.60;45.25
73151;BME280;61354;50.758;6.106;2023-04-27T15:41:43;99261.47;;;15.52;45.31
73151;BME280;61354;50.758;6.106;2023-04-27T15:44:39;99257.66;;;15.27;45.22
73151;BME280;61354;50.758;6.106;2023-04-27T15:47:12;99251.81;;;14.98;46.27
73151;BME280;61354;50.758;6.106;2023-04-27T15:49:56;99257.97;;;15.14;48.29
73151;BME280;61354;50.758;6.106;2023-04-27T15:52:21;99254.91;;;15.30;46.96
73151;BME280;61354;50.758;6.106;2023-04-27T15:54:47;99262.16;;;14.57;46.87
73151;BME280;61354;50.758;6.106;2023-04-27T15:57:12;99260.50;;;14.52;48.01
73151;BME280;61354;50.758;6.106;2023-04-27T16:00:09;99256.19;;;14.58;48.33
73151;BME280;61354;50.758;6.106;2023-04-27T16:03:04;99245.13;;;14.39;48.46
73151;BME280;61354;50.758;6.106;2023-04-27T16:05:50;99257.47;;;14.04;49.74
73151;BME280;61354;50.758;6.106;2023-04-27T16:08:28;99245.25;;;13.86;49.06
73151;BME280;61354;50.758;6.106;2023-04-27T16:11:24;99239.97;;;13.81;48.99
73151;BME280;61354;50.758;6.106;2023-04-27T16:13:57;99227.31;;;13.87;49.63
73151;BME280;61354;50.758;6.106;2023-04-27T16:16:28;99229.88;;;13.99;50.08
73151;BME280;61354;50.758;6.106;2023-04-27T16:19:18;99227.28;;;13.83;51.29
73151;BME280;61354;50.758;6.106;2023-04-27T16:22:02;99214.84;;;13.77;49.83
73151;BME280;61354;50.758;6.106;2023-04-27T16:24:40;99212.28;;;13.95;51.16
73151;BME280;61354;50.758;6.106;2023-04-27T16:30:14;99205.22;;;13.75;50.98
73151;BME280;61354;50.758;6.106;2023-04-27T16:33:21;99198.97;;;13.85;49.11
73151;BME280;61354;50.758;6.106;2023-04-27T16:36:18;99206.38;;;14.00;50.41